首页
METAR-TAF:

METAR-TAF

机场 :

拉瓜地亞機場

纽约 / 拉瓜地亞, 紐約州, 美国

纬度: 40-46-45N, 经度: 073-52-48W, 海拔: 6米

当前天气观测

该预报发布于24分钟前的07:51 UTC
风速6节,风向东北
温度 1°C
湿度 69%
气压 1034 hPa
能見度: 16.1公里
少量云层高于3500英尺
多云层高于15000英尺
多云层高于25000英尺

METAR: KLGA 130751Z 04006KT 10SM FEW035 BKN150 BKN250 01/M04 A3054 RMK AO2 SLP340 T00111039 $

时间: 03:15 (08:15 UTC)

预报

该预报发布于2小时和33分钟前的05:42 UTC
预报有效从13日的 06点(UTC)到 14日的 12点(UTC)
风速5节,风向
能見度: 10公里
散云层高于3000英尺
多云层高于25000英尺
短暂存在
从 13日的 06点(UTC)到 13日的 08点(UTC)
多云层高于3000英尺
多云层高于25000英尺
从 13日的 0800点(UTC)
风速5节,风向东转东南
能見度: 10公里
多云层高于3000英尺
短暂存在
从 13日的 08点(UTC)到 13日的 12点(UTC)
散云层高于3000英尺
从 13日的 1400点(UTC)
风速6节,风向
能見度: 10公里
散云层高于1200英尺
多云层高于2000英尺
几率 30%
从 13日的 16点(UTC)到 13日的 21点(UTC)
能見度: 8.0公里
阴天层高于1200英尺
小雨
从 13日的 2100点(UTC)
风速9节,风向
能見度: 4.8公里
散云层高于600英尺
阴天层高于1000英尺
小雨, 轻雾
从 14日的 0000点(UTC)
风速12节,风向
能見度: 3.2公里
散云层高于300英尺
阴天层高于600英尺
雨, 轻雾
从 14日的 0300点(UTC)
风速12节,风向
能見度: 3.2公里
阴天层高于300英尺
雨, 轻雾

TAF: KLGA 130542Z 1306/1412 09005KT P6SM SCT030 BKN250 TEMPO 1306/1308 BKN030 BKN250 FM130800 12005KT P6SM BKN030 TEMPO 1308/1312 SCT030 FM131400 10006KT P6SM SCT012 BKN020 PROB30 1316/1321 5SM -RA OVC012 FM132100 10009KT 3SM -RA BR SCT006 OVC010 FM140000 09012KT 2SM RA BR SCT003 OVC006 FM140300 08012KT 2SM RA BR OVC003

超过4000个机场的气象观测和天气预报(METAR&TAF报告)。

可查询的气象台以黄色和红色小点在地图上表示。

将鼠标移到小点上方,可查看气象台名称。

然后点击查看天气观测和预报。

如需切换地图:点击带黑十字的绿色按钮放大地图;点击带横线的绿色按钮缩小地图;或者点击绿色箭头查看邻近地区的地图。


METAR-TAF: